Time;durP1;ratioP1;P1;durP2;ratioP2;P2;SDS_P1;SDS_P2;PMS_P1;PMS_P2;Temp;Humidity;BMP_temperature;BMP_pressure;BME280_temperature;BME280_humidity;BME280_pressure;Samples;Min_cycle;Max_cycle;Signal;HPM_P1;HPM_P2
2022/07/11 00:01:31;;;;;;;2.33;1.60;;;13.50;76.30;;;;;;5038798;28;20699;-86
2022/07/11 00:03:59;;;;;;;4.00;1.70;;;13.60;76.30;;;;;;5037184;28;20234;-86
2022/07/11 00:06:26;;;;;;;3.85;1.63;;;13.60;75.70;;;;;;5035050;28;20747;-86
2022/07/11 00:09:13;;;;;;;2.97;1.50;;;13.70;75.10;;;;;;5030685;28;20543;-86
2022/07/11 00:11:40;;;;;;;6.32;1.30;;;13.80;72.10;;;;;;5025865;28;20202;-86
2022/07/11 00:14:07;;;;;;;3.15;1.42;;;14.00;70.30;;;;;;5025943;28;20202;-86
2022/07/11 00:16:45;;;;;;;2.50;1.50;;;14.00;68.90;;;;;;5032422;28;20194;-86
2022/07/11 00:19:14;;;;;;;2.80;1.45;;;14.10;67.00;;;;;;5027876;28;20273;-86
2022/07/11 00:21:41;;;;;;;3.80;1.90;;;14.10;66.80;;;;;;5033573;28;20199;-87
2022/07/11 00:24:14;;;;;;;4.10;1.60;;;14.10;66.30;;;;;;5024182;28;20206;-86
2022/07/11 00:26:44;;;;;;;3.22;1.10;;;14.20;63.80;;;;;;5032663;28;20202;-86
2022/07/11 00:29:14;;;;;;;2.28;1.40;;;14.20;66.50;;;;;;5026314;28;20191;-86
2022/07/11 00:31:45;;;;;;;2.17;1.73;;;14.20;63.50;;;;;;5028612;28;20210;-86
2022/07/11 00:34:12;;;;;;;2.65;1.60;;;14.20;63.00;;;;;;5030113;28;20207;-86
2022/07/11 00:36:39;;;;;;;6.88;1.40;;;14.30;63.80;;;;;;5029270;28;20264;-86
2022/07/11 00:39:06;;;;;;;3.25;2.03;;;14.30;64.00;;;;;;5030957;28;20565;-86
2022/07/11 00:41:38;;;;;;;2.55;1.50;;;14.40;63.40;;;;;;5034004;28;20201;-86
2022/07/11 00:44:14;;;;;;;2.10;1.23;;;14.40;65.00;;;;;;5022943;28;20205;-87
2022/07/11 00:46:57;;;;;;;2.80;1.52;;;14.50;65.80;;;;;;5032723;28;20187;-86
2022/07/11 00:49:26;;;;;;;2.28;1.60;;;14.60;63.60;;;;;;5030193;28;20230;-87
2022/07/11 00:51:53;;;;;;;1.50;1.40;;;14.60;64.30;;;;;;5024371;28;20206;-86
2022/07/11 00:54:32;;;;;;;3.33;1.60;;;14.70;63.60;;;;;;5030417;28;20219;-87
2022/07/11 00:57:02;;;;;;;3.92;1.63;;;14.70;64.00;;;;;;5033925;28;20649;-87
2022/07/11 00:59:32;;;;;;;1.67;1.42;;;14.70;63.70;;;;;;5030527;28;20205;-87
2022/07/11 01:02:04;;;;;;;2.38;1.38;;;14.70;62.40;;;;;;5029485;28;20201;-86
2022/07/11 01:04:31;;;;;;;3.90;1.48;;;14.70;64.30;;;;;;5034287;28;20744;-87
2022/07/11 01:06:58;;;;;;;3.08;1.40;;;14.70;64.90;;;;;;5027831;28;20197;-87
2022/07/11 01:09:32;;;;;;;1.67;1.40;;;14.60;63.30;;;;;;5031444;28;20248;-86
2022/07/11 01:12:02;;;;;;;3.03;1.52;;;14.60;64.60;;;;;;5030923;28;20202;-86
2022/07/11 01:14:52;;;;;;;3.13;1.48;;;14.60;67.60;;;;;;5021099;28;20207;-86
2022/07/11 01:17:21;;;;;;;2.22;1.23;;;14.60;66.20;;;;;;5036594;28;20194;-86
2022/07/11 01:19:56;;;;;;;4.32;1.50;;;14.60;65.30;;;;;;5033609;28;20214;-86
2022/07/11 01:22:28;;;;;;;1.73;1.20;;;14.60;66.90;;;;;;5032963;28;20208;-86
2022/07/11 01:25:03;;;;;;;4.15;1.40;;;14.70;67.10;;;;;;5025742;28;20207;-86
2022/07/11 01:27:33;;;;;;;2.15;1.38;;;14.70;65.90;;;;;;5025139;28;20202;-87
2022/07/11 01:30:00;;;;;;;4.13;1.45;;;14.80;64.10;;;;;;5032893;28;20658;-86
2022/07/11 01:32:38;;;;;;;1.30;1.20;;;14.80;62.50;;;;;;5033672;28;20224;-86
2022/07/11 01:35:08;;;;;;;1.02;1.02;;;14.90;62.00;;;;;;5031271;28;20210;-86
2022/07/11 01:37:55;;;;;;;3.28;1.33;;;14.80;61.80;;;;;;5030300;28;20646;-87
2022/07/11 01:40:33;;;;;;;2.65;1.10;;;14.80;63.50;;;;;;5027483;28;20562;-86
2022/07/11 01:43:02;;;;;;;1.92;1.20;;;14.80;63.80;;;;;;5029055;28;20650;-86
2022/07/11 01:45:32;;;;;;;1.95;1.33;;;14.80;63.80;;;;;;5036011;28;20205;-85
2022/07/11 01:48:14;;;;;;;2.13;1.60;;;14.80;64.90;;;;;;5033899;28;20192;-86
2022/07/11 01:50:56;;;;;;;3.30;1.27;;;14.80;66.20;;;;;;5035570;28;20208;-87
2022/07/11 01:53:49;;;;;;;2.78;1.10;;;14.90;62.90;;;;;;5031381;28;20202;-86
2022/07/11 01:56:18;;;;;;;1.90;1.05;;;15.00;62.60;;;;;;5028380;28;20676;-87
2022/07/11 01:58:56;;;;;;;2.92;1.00;;;15.10;62.70;;;;;;5024721;28;20203;-86
2022/07/11 02:01:26;;;;;;;1.95;1.33;;;15.10;60.70;;;;;;5030786;28;20672;-86
2022/07/11 02:04:02;;;;;;;1.33;1.20;;;15.00;60.60;;;;;;5025286;28;20602;-86
2022/07/11 02:06:32;;;;;;;1.00;1.00;;;15.00;58.10;;;;;;5033314;28;20194;-87
2022/07/11 02:09:14;;;;;;;2.67;1.35;;;15.00;58.40;;;;;;5027115;28;20202;-87
2022/07/11 02:11:45;;;;;;;2.08;1.20;;;15.00;57.80;;;;;;5020294;28;20195;-86
2022/07/11 02:14:31;;;;;;;2.97;1.13;;;14.90;58.30;;;;;;5034661;28;20205;-86
2022/07/11 02:16:58;;;;;;;2.90;1.45;;;14.80;60.90;;;;;;5026025;28;20226;-86
2022/07/11 02:19:25;;;;;;;3.33;1.23;;;14.80;60.70;;;;;;5032518;28;20205;-86
2022/07/11 02:21:56;;;;;;;3.75;1.10;;;14.80;61.30;;;;;;5022794;28;20571;-86
2022/07/11 02:24:32;;;;;;;1.50;1.25;;;14.80;61.60;;;;;;5022461;28;20199;-87
2022/07/11 02:27:27;;;;;;;2.50;1.30;;;14.80;63.00;;;;;;5030743;28;20260;-86
2022/07/11 02:29:56;;;;;;;1.73;1.02;;;14.70;61.50;;;;;;5019718;28;20210;-87
2022/07/11 02:32:26;;;;;;;3.22;1.00;;;14.70;62.10;;;;;;5025673;28;20226;-86
2022/07/11 02:35:02;;;;;;;2.72;1.30;;;14.70;61.80;;;;;;5019637;28;20215;-87
2022/07/11 02:37:32;;;;;;;2.25;1.23;;;14.60;62.30;;;;;;5034373;28;20213;-87
2022/07/11 02:40:02;;;;;;;2.83;1.10;;;14.60;63.00;;;;;;5022444;28;20192;-87
2022/07/11 02:42:33;;;;;;;1.90;1.23;;;14.50;63.60;;;;;;5033280;28;20617;-87
2022/07/11 02:45:14;;;;;;;2.65;1.23;;;14.50;60.30;;;;;;5034295;28;20203;-86
2022/07/11 02:47:50;;;;;;;3.10;1.40;;;14.60;60.60;;;;;;5029217;28;20202;-87
2022/07/11 02:50:20;;;;;;;1.52;1.00;;;14.60;61.50;;;;;;5030570;28;20666;-86
2022/07/11 02:52:56;;;;;;;3.10;1.30;;;14.70;61.40;;;;;;5023752;28;20199;-87
2022/07/11 02:55:32;;;;;;;2.10;1.17;;;14.80;62.90;;;;;;5033245;28;20222;-87
2022/07/11 02:58:04;;;;;;;3.10;1.50;;;14.80;60.80;;;;;;5033022;28;20564;-87
2022/07/11 03:00:32;;;;;;;3.70;1.33;;;14.80;63.30;;;;;;5028849;28;20195;-87
2022/07/11 03:03:03;;;;;;;1.80;1.30;;;14.90;61.40;;;;;;5024624;28;20222;-87
2022/07/11 03:05:29;;;;;;;1.42;1.20;;;15.00;62.70;;;;;;5017214;28;20214;-87
2022/07/11 03:08:02;;;;;;;1.10;0.90;;;15.00;61.20;;;;;;5025899;28;20195;-86
2022/07/11 03:10:32;;;;;;;1.50;1.00;;;14.90;61.80;;;;;;5031340;28;20191;-87
2022/07/11 03:12:59;;;;;;;1.67;1.20;;;14.90;63.60;;;;;;5019760;28;20197;-87
2022/07/11 03:15:33;;;;;;;1.90;1.30;;;14.90;62.10;;;;;;5029969;28;20208;-87
2022/07/11 03:18:14;;;;;;;3.88;1.50;;;14.90;63.40;;;;;;5020674;28;20203;-87
2022/07/11 03:20:44;;;;;;;3.45;3.15;;;14.90;74.80;;;;;;5024944;28;20213;-86
2022/07/11 03:23:20;;;;;;;3.70;2.15;;;15.50;72.40;;;;;;5030854;28;20203;-87
2022/07/11 03:25:47;;;;;;;4.50;1.83;;;16.20;63.50;;;;;;5018884;28;20677;-87
2022/07/11 03:28:14;;;;;;;4.20;1.67;;;16.40;57.60;;;;;;5027328;28;20191;-86
2022/07/11 03:30:45;;;;;;;2.45;1.60;;;16.40;52.70;;;;;;5018913;28;20663;-86
2022/07/11 03:33:14;;;;;;;2.05;1.42;;;16.30;53.70;;;;;;5019464;28;21102;-86
2022/07/11 03:35:50;;;;;;;7.95;2.83;;;16.20;52.50;;;;;;5020447;28;20211;-87
2022/07/11 03:38:32;;;;;;;9.07;2.55;;;16.40;52.70;;;;;;5028802;28;20208;-86
2022/07/11 03:41:02;;;;;;;23.48;5.47;;;16.60;46.70;;;;;;5017178;28;20195;-87
2022/07/11 03:43:29;;;;;;;10.38;3.55;;;16.40;47.00;;;;;;5023547;28;20194;-86
2022/07/11 03:46:09;;;;;;;24.02;5.88;;;16.40;46.80;;;;;;5017907;28;20606;-86
2022/07/11 03:48:36;;;;;;;6.65;2.22;;;16.40;46.30;;;;;;5031457;28;20206;-86
2022/07/11 03:51:04;;;;;;;5.70;1.90;;;16.60;46.50;;;;;;5023596;28;20202;-86
2022/07/11 03:53:38;;;;;;;7.00;2.00;;;16.60;44.40;;;;;;5022631;28;20206;-86
2022/07/11 03:56:09;;;;;;;3.22;1.77;;;16.70;42.20;;;;;;5027301;28;20226;-87
2022/07/11 03:58:36;;;;;;;8.65;2.17;;;16.70;44.80;;;;;;5032606;28;20244;-86
2022/07/11 04:01:09;;;;;;;5.22;1.73;;;16.80;44.80;;;;;;5027519;28;20195;-86
2022/07/11 04:03:38;;;;;;;4.65;1.85;;;17.10;42.90;;;;;;5029070;28;20208;-86
2022/07/11 04:06:06;;;;;;;3.42;1.60;;;17.30;41.00;;;;;;5023644;28;20214;-86
2022/07/11 04:08:33;;;;;;;4.28;1.67;;;17.30;39.60;;;;;;5014667;28;20655;-86
2022/07/11 04:11:00;;;;;;;4.60;1.98;;;17.40;40.00;;;;;;5025949;28;20198;-86
2022/07/11 04:13:39;;;;;;;2.22;1.40;;;17.50;39.40;;;;;;5032031;28;20221;-86
2022/07/11 04:16:09;;;;;;;2.72;1.52;;;17.40;38.10;;;;;;5032688;28;20222;-86
2022/07/11 04:18:38;;;;;;;3.22;1.42;;;17.30;40.60;;;;;;5033523;28;20304;-86
2022/07/11 04:21:08;;;;;;;3.42;1.40;;;17.30;40.10;;;;;;5033419;28;20648;-86
2022/07/11 04:23:38;;;;;;;3.17;1.63;;;17.30;38.30;;;;;;5022540;28;20192;-86
2022/07/11 04:26:06;;;;;;;1.83;1.40;;;17.40;39.00;;;;;;5035007;28;20297;-86
2022/07/11 04:28:59;;;;;;;2.30;1.45;;;17.40;38.50;;;;;;5031813;28;20195;-86
2022/07/11 04:31:27;;;;;;;2.17;1.42;;;17.10;39.70;;;;;;5029752;28;20518;-86
2022/07/11 04:33:54;;;;;;;2.65;1.20;;;17.00;40.00;;;;;;5025929;28;20539;-86
2022/07/11 04:36:55;;;;;;;5.03;1.40;;;17.30;39.50;;;;;;5040381;28;20892;-86
2022/07/11 04:39:26;;;;;;;5.93;1.42;;;17.20;39.50;;;;;;5022582;28;20205;-86
2022/07/11 04:42:02;;;;;;;2.25;1.63;;;17.30;39.80;;;;;;5036578;28;20209;-86
2022/07/11 04:44:32;;;;;;;4.72;1.42;;;17.40;39.60;;;;;;5035103;28;20214;-86
2022/07/11 04:47:04;;;;;;;2.40;1.30;;;17.30;38.50;;;;;;5038382;28;20201;-87
2022/07/11 04:49:38;;;;;;;3.30;1.42;;;17.60;36.70;;;;;;5040776;28;20208;-86
2022/07/11 04:52:08;;;;;;;3.08;1.23;;;17.60;35.60;;;;;;5034234;28;20194;-87
2022/07/11 04:54:35;;;;;;;2.30;1.27;;;17.50;36.80;;;;;;5034846;28;20206;-87
2022/07/11 04:57:02;;;;;;;1.58;1.30;;;17.60;33.90;;;;;;5024269;28;20227;-87
2022/07/11 04:59:38;;;;;;;4.05;1.20;;;17.40;34.00;;;;;;5021795;28;20285;-87
2022/07/11 05:02:10;;;;;;;4.85;1.50;;;17.30;32.70;;;;;;5031543;28;20202;-86
2022/07/11 05:04:37;;;;;;;2.22;1.45;;;17.50;32.30;;;;;;5030619;28;20211;-86
2022/07/11 05:07:08;;;;;;;3.42;1.30;;;17.30;34.80;;;;;;5035451;28;20260;-85
2022/07/11 05:10:08;;;;;;;5.97;1.73;;;17.20;36.60;;;;;;5031029;28;20196;-88
2022/07/11 05:12:38;;;;;;;4.72;1.30;;;17.00;39.90;;;;;;5027268;28;20564;-87
2022/07/11 05:15:14;;;;;;;3.63;1.60;;;17.30;41.10;;;;;;5023400;28;20198;-88
2022/07/11 05:17:52;;;;;;;2.15;1.30;;;17.60;36.10;;;;;;5022754;28;20225;-88
2022/07/11 05:20:19;;;;;;;2.35;1.17;;;17.80;32.90;;;;;;5028431;28;20207;-89
2022/07/11 05:22:50;;;;;;;3.42;1.30;;;17.80;34.10;;;;;;5025302;28;20230;-91
2022/07/11 05:25:20;;;;;;;2.58;1.38;;;17.80;34.80;;;;;;5024750;28;20199;-91
2022/07/11 05:27:47;;;;;;;4.57;1.50;;;17.90;33.30;;;;;;5029320;28;20433;-88
2022/07/11 05:30:14;;;;;;;1.95;1.30;;;17.80;33.90;;;;;;5004675;28;20210;-87
2022/07/11 05:32:44;;;;;;;5.38;1.35;;;17.90;33.30;;;;;;5026248;28;20215;-89
2022/07/11 05:35:45;;;;;;;2.30;1.25;;;18.00;33.10;;;;;;5035006;28;20207;-88
2022/07/11 05:38:14;;;;;;;4.30;1.50;;;18.20;32.50;;;;;;5026512;28;20203;-88
2022/07/11 05:40:50;;;;;;;3.00;1.45;;;18.30;32.10;;;;;;5030103;28;20554;-88
2022/07/11 05:43:17;;;;;;;3.38;1.52;;;18.60;30.90;;;;;;5028312;28;20199;-88
2022/07/11 05:46:05;;;;;;;3.17;1.33;;;18.70;31.00;;;;;;5034806;28;20190;-89
2022/07/11 05:48:44;;;;;;;3.55;1.40;;;18.90;31.10;;;;;;5030119;28;20676;-89
2022/07/11 05:51:28;;;;;;;2.05;1.30;;;18.80;29.90;;;;;;5023534;28;20191;-88
2022/07/11 05:57:19;;;;;;;1.60;1.10;;;18.90;31.10;;;;;;5020051;28;20210;-90
2022/07/11 05:59:46;;;;;;;3.13;1.50;;;19.00;29.80;;;;;;5036029;28;20206;-85
2022/07/11 06:02:13;;;;;;;6.78;1.80;;;19.50;28.00;;;;;;5036027;28;20658;-86
2022/07/11 06:04:42;;;;;;;4.80;1.48;;;19.70;27.00;;;;;;5038523;28;20210;-85
2022/07/11 06:07:11;;;;;;;3.70;1.50;;;19.60;27.90;;;;;;5034308;28;20205;-85
2022/07/11 06:09:37;;;;;;;3.25;1.20;;;19.30;29.40;;;;;;5035788;28;20192;-85
2022/07/11 06:12:09;;;;;;;4.60;1.40;;;19.10;31.30;;;;;;5034232;28;20195;-85
2022/07/11 06:14:35;;;;;;;3.63;1.40;;;18.90;31.10;;;;;;5042179;28;20199;-85
2022/07/11 06:17:02;;;;;;;5.10;1.30;;;18.70;30.10;;;;;;5036389;28;20233;-85
2022/07/11 06:19:30;;;;;;;5.38;1.23;;;18.30;30.60;;;;;;5035812;28;20195;-86
2022/07/11 06:21:57;;;;;;;5.60;1.30;;;18.10;30.50;;;;;;5030750;28;20724;-85
2022/07/11 06:24:28;;;;;;;3.50;1.50;;;17.90;30.30;;;;;;5026464;28;20210;-88
2022/07/11 06:27:04;;;;;;;3.30;1.30;;;17.80;30.20;;;;;;5031825;28;20666;-87
2022/07/11 06:30:26;;;;;;;6.30;1.45;;;17.70;31.50;;;;;;5023041;28;20188;-87
2022/07/11 06:32:56;;;;;;;2.58;1.20;;;17.80;32.40;;;;;;5036184;28;20313;-88
2022/07/11 06:35:26;;;;;;;2.45;1.40;;;17.80;32.80;;;;;;5023930;28;20199;-88
2022/07/11 06:37:53;;;;;;;4.28;1.40;;;17.80;34.80;;;;;;5034888;28;20195;-88
2022/07/11 06:40:28;;;;;;;3.05;1.50;;;17.70;33.10;;;;;;5015429;28;20194;-88
2022/07/11 06:42:56;;;;;;;4.38;1.55;;;17.70;33.60;;;;;;5032589;28;20557;-87
2022/07/11 06:45:26;;;;;;;2.88;1.40;;;17.70;33.30;;;;;;5032281;28;20209;-87
2022/07/11 06:48:02;;;;;;;5.25;1.60;;;17.70;33.70;;;;;;5034264;28;20581;-87
2022/07/11 06:51:02;;;;;;;3.67;1.55;;;17.80;33.00;;;;;;5026967;28;20206;-87
2022/07/11 06:53:44;;;;;;;3.90;1.40;;;18.00;31.40;;;;;;5026898;28;20205;-87
2022/07/11 06:56:28;;;;;;;3.10;1.17;;;17.90;31.60;;;;;;5032951;28;20221;-87
2022/07/11 06:58:55;;;;;;;2.47;1.45;;;17.90;30.60;;;;;;5030683;28;20205;-87
2022/07/11 07:01:33;;;;;;;3.92;1.38;;;17.80;32.10;;;;;;5032850;28;20274;-86
2022/07/11 07:04:00;;;;;;;4.05;1.60;;;18.00;33.30;;;;;;5028039;28;20221;-86
2022/07/11 07:06:39;;;;;;;5.68;1.48;;;18.20;32.30;;;;;;5024161;28;20198;-88
2022/07/11 07:09:14;;;;;;;4.50;1.63;;;18.40;30.80;;;;;;5025098;28;20706;-89
2022/07/11 07:12:20;;;;;;;1.90;1.30;;;18.50;30.90;;;;;;5034599;28;20833;-88
2022/07/11 07:14:52;;;;;;;2.40;1.10;;;18.60;30.30;;;;;;5021882;28;20246;-87
2022/07/11 07:17:32;;;;;;;2.72;1.30;;;18.90;27.70;;;;;;5018774;28;20596;-88
2022/07/11 07:20:14;;;;;;;1.33;1.23;;;19.10;28.90;;;;;;5024912;28;20200;-89
2022/07/11 07:22:56;;;;;;;2.67;1.10;;;19.30;29.00;;;;;;5021624;28;20195;-88
2022/07/11 07:25:33;;;;;;;3.30;1.25;;;19.70;25.40;;;;;;5030334;28;20204;-87
2022/07/11 07:28:00;;;;;;;1.80;1.10;;;20.00;26.50;;;;;;5029805;28;20199;-86
2022/07/11 07:30:51;;;;;;;2.42;1.20;;;20.40;24.90;;;;;;5030757;28;20206;-87
2022/07/11 07:33:26;;;;;;;2.45;1.20;;;20.50;23.80;;;;;;5027988;28;20214;-86
2022/07/11 07:36:08;;;;;;;2.10;1.13;;;20.60;23.60;;;;;;5020988;28;20721;-85
2022/07/11 07:38:36;;;;;;;2.25;1.10;;;20.90;21.70;;;;;;5030162;28;20202;-86
2022/07/11 07:41:15;;;;;;;2.58;1.10;;;21.20;21.30;;;;;;5027575;28;20226;-86
2022/07/11 07:43:51;;;;;;;1.30;1.00;;;21.30;20.90;;;;;;5021795;28;20225;-86
2022/07/11 07:46:19;;;;;;;4.43;1.30;;;21.60;20.90;;;;;;5026016;28;20560;-86
2022/07/11 07:48:47;;;;;;;3.42;1.38;;;21.40;21.60;;;;;;5029207;28;20370;-85
2022/07/11 07:51:14;;;;;;;2.00;1.25;;;21.30;23.80;;;;;;5026187;28;20691;-87
2022/07/11 07:53:44;;;;;;;4.75;1.25;;;21.40;21.50;;;;;;5032895;28;20252;-86
2022/07/11 07:56:32;;;;;;;2.13;1.20;;;21.40;20.60;;;;;;5026110;28;20219;-86
2022/07/11 07:59:02;;;;;;;1.30;1.10;;;21.30;21.40;;;;;;5032846;28;20214;-86
2022/07/11 08:01:51;;;;;;;1.52;0.90;;;21.50;20.70;;;;;;5026737;28;20212;-85
2022/07/11 08:04:19;;;;;;;5.05;1.40;;;21.70;19.90;;;;;;5021023;28;20199;-85
2022/07/11 08:06:51;;;;;;;1.83;1.20;;;21.70;20.40;;;;;;5031974;28;20204;-87
2022/07/11 08:09:20;;;;;;;3.78;1.50;;;21.40;22.50;;;;;;5029555;28;20198;-87
2022/07/11 08:11:50;;;;;;;3.30;1.30;;;21.30;23.80;;;;;;5023156;28;20194;-87
2022/07/11 08:14:17;;;;;;;3.65;1.35;;;21.40;23.10;;;;;;5021376;28;20308;-88
2022/07/11 08:16:52;;;;;;;5.03;1.55;;;21.80;22.20;;;;;;5026324;28;20214;-85
2022/07/11 08:19:32;;;;;;;2.92;1.52;;;21.90;21.90;;;;;;5028491;28;20204;-88
2022/07/11 08:22:02;;;;;;;5.38;1.40;;;22.00;21.60;;;;;;5026411;28;20538;-87
2022/07/11 08:24:29;;;;;;;2.75;1.70;;;22.20;22.10;;;;;;5030533;28;20200;-85
2022/07/11 08:31:02;;;;;;;1.60;1.50;;;22.50;20.00;;;;;;5050785;28;20182;-87
2022/07/11 08:33:46;;;;;;;4.20;1.20;;;22.50;20.00;;;;;;5044110;28;20697;-87
2022/07/11 08:36:38;;;;;;;5.13;1.33;;;22.50;20.00;;;;;;5024916;28;20224;-86
2022/07/11 08:39:16;;;;;;;2.92;1.30;;;22.60;21.10;;;;;;5035033;28;20202;-85
2022/07/11 08:41:45;;;;;;;4.57;1.33;;;22.90;19.30;;;;;;5034921;28;20206;-84
2022/07/11 08:44:15;;;;;;;4.75;1.60;;;23.00;19.70;;;;;;5033238;28;20198;-84
2022/07/11 08:47:20;;;;;;;4.03;1.40;;;23.10;20.10;;;;;;5031791;28;20285;-83
2022/07/11 08:49:59;;;;;;;1.00;0.80;;;23.60;18.70;;;;;;5030721;28;20233;-87
2022/07/11 08:52:28;;;;;;;3.13;1.23;;;23.70;16.70;;;;;;5020178;28;20277;-86
2022/07/11 08:54:56;;;;;;;4.75;1.15;;;23.70;17.10;;;;;;5029105;28;20199;-87
2022/07/11 08:57:26;;;;;;;2.58;1.00;;;23.60;17.00;;;;;;5028159;28;20313;-84
2022/07/11 08:59:55;;;;;;;2.42;1.10;;;23.10;18.20;;;;;;5017917;28;20690;-84
2022/07/11 09:02:30;;;;;;;4.18;1.40;;;22.90;17.80;;;;;;5028166;28;20542;-84
2022/07/11 09:04:58;;;;;;;1.42;1.00;;;22.80;18.50;;;;;;5024842;28;20214;-85
2022/07/11 09:07:26;;;;;;;3.05;1.50;;;23.40;17.20;;;;;;5022275;28;20291;-87
2022/07/11 09:09:56;;;;;;;4.30;1.50;;;24.40;16.30;;;;;;5023093;28;20213;-86
2022/07/11 09:13:05;;;;;;;2.53;1.20;;;25.10;15.10;;;;;;5028162;28;20194;-86
2022/07/11 09:15:39;;;;;;;2.72;1.15;;;24.80;14.10;;;;;;5022372;28;20190;-85
2022/07/11 09:18:32;;;;;;;2.78;1.30;;;23.70;14.90;;;;;;5026306;28;20218;-87
2022/07/11 09:27:11;;;;;;;2.00;1.17;;;21.90;21.80;;;;;;5025288;28;20249;-86
2022/07/11 09:30:20;;;;;;;1.60;1.00;;;21.80;19.80;;;;;;5027897;28;20203;-87
2022/07/11 09:32:57;;;;;;;2.33;1.00;;;21.80;21.80;;;;;;5033892;28;20225;-88
2022/07/11 09:35:28;;;;;;;1.50;0.90;;;21.90;20.10;;;;;;5028797;28;20665;-88
2022/07/11 09:38:11;;;;;;;1.83;1.00;;;21.60;20.40;;;;;;4996745;28;20215;-88
2022/07/11 09:40:50;;;;;;;2.15;1.00;;;21.50;21.00;;;;;;5028392;28;20285;-91
2022/07/11 09:43:26;;;;;;;1.92;0.80;;;21.40;20.90;;;;;;5030256;28;20195;-92
2022/07/11 09:46:14;;;;;;;1.40;0.70;;;21.20;22.40;;;;;;5012080;28;20206;-92
2022/07/11 09:48:45;;;;;;;1.38;0.90;;;21.20;20.50;;;;;;5025514;28;20565;-91
2022/07/11 09:51:20;;;;;;;1.42;0.80;;;21.10;21.70;;;;;;5028348;28;20199;-92
2022/07/11 09:54:06;;;;;;;2.50;0.77;;;20.90;22.20;;;;;;5021644;28;20259;-91
2022/07/11 10:00:11;;;;;;;2.45;0.88;;;21.00;22.70;;;;;;5026617;28;20614;-92
2022/07/11 10:02:39;;;;;;;0.60;0.60;;;21.30;21.80;;;;;;5027483;28;20256;-92
2022/07/11 10:05:07;;;;;;;0.70;0.70;;;21.40;22.40;;;;;;5020774;28;20223;-88
2022/07/11 10:07:50;;;;;;;0.77;0.77;;;21.20;21.70;;;;;;5030845;28;20218;-89
2022/07/11 10:10:19;;;;;;;1.25;0.70;;;21.40;21.50;;;;;;5027598;28;20677;-89
2022/07/11 10:12:52;;;;;;;2.22;0.70;;;21.50;20.60;;;;;;5024501;28;20206;-89
2022/07/11 10:15:34;;;;;;;0.80;0.80;;;21.40;20.00;;;;;;5020456;28;20199;-89
2022/07/11 10:18:08;;;;;;;1.63;0.95;;;21.40;20.40;;;;;;5021170;28;20231;-92
2022/07/11 10:20:46;;;;;;;0.95;0.90;;;21.50;22.60;;;;;;5028975;28;20209;-92
2022/07/11 10:23:23;;;;;;;3.20;0.68;;;21.80;19.90;;;;;;5033732;28;20202;-92
2022/07/11 10:26:05;;;;;;;0.85;0.60;;;21.80;21.80;;;;;;5031493;28;20221;-92
2022/07/11 10:28:38;;;;;;;0.70;0.65;;;21.90;21.30;;;;;;5020745;28;20561;-90
2022/07/11 10:31:30;;;;;;;0.70;0.70;;;21.90;21.00;;;;;;5027641;28;20195;-89
2022/07/11 10:34:04;;;;;;;2.45;0.90;;;21.70;21.70;;;;;;5016865;28;20238;-90
2022/07/11 10:36:34;;;;;;;0.80;0.80;;;21.90;21.90;;;;;;5023731;28;20207;-88
2022/07/11 10:39:17;;;;;;;1.00;0.73;;;21.90;21.20;;;;;;5024860;28;20213;-88
2022/07/11 10:41:45;;;;;;;3.85;0.93;;;21.90;20.90;;;;;;5031624;28;20203;-88
2022/07/11 10:44:14;;;;;;;0.70;0.70;;;21.60;20.20;;;;;;5033353;28;20194;-88
2022/07/11 10:46:44;;;;;;;1.23;1.00;;;21.40;20.70;;;;;;5023604;28;20203;-88
2022/07/11 10:49:18;;;;;;;18.50;16.25;;;21.20;21.30;;;;;;5024260;28;20202;-88
2022/07/11 10:51:59;;;;;;;3.15;2.85;;;21.20;22.40;;;;;;5021913;28;20647;-88
2022/07/11 10:58:06;;;;;;;1.58;1.20;;;21.10;21.20;;;;;;5028931;28;20230;-88
2022/07/11 11:00:38;;;;;;;1.98;1.50;;;21.10;23.20;;;;;;5024218;28;20195;-88
2022/07/11 11:03:32;;;;;;;1.33;1.13;;;21.10;23.70;;;;;;5017650;28;20206;-88
2022/07/11 11:06:03;;;;;;;1.33;0.88;;;21.20;24.40;;;;;;5023122;28;20241;-88
2022/07/11 11:09:02;;;;;;;1.63;1.50;;;21.30;23.80;;;;;;5024703;28;20190;-88
2022/07/11 11:11:38;;;;;;;0.90;0.90;;;21.70;22.80;;;;;;5027458;28;20616;-87
2022/07/11 11:14:28;;;;;;;1.60;0.93;;;22.10;20.60;;;;;;5028086;28;20198;-88
2022/07/11 11:17:17;;;;;;;1.67;1.58;;;22.60;21.80;;;;;;5030818;28;20219;-88
2022/07/11 11:20:26;;;;;;;0.80;0.80;;;23.00;19.00;;;;;;5024791;28;20239;-88
2022/07/11 11:23:23;;;;;;;1.00;0.80;;;22.60;20.60;;;;;;5026045;28;20570;-88
2022/07/11 11:25:50;;;;;;;3.95;1.20;;;22.50;20.60;;;;;;5005803;28;20209;-89
2022/07/11 11:28:21;;;;;;;1.27;0.80;;;22.30;20.60;;;;;;5026030;28;20200;-88
2022/07/11 11:31:09;;;;;;;1.35;0.98;;;22.50;21.00;;;;;;5021554;28;20206;-88
2022/07/11 11:33:47;;;;;;;0.80;0.80;;;22.60;20.10;;;;;;5021349;28;20207;-88
2022/07/11 11:36:21;;;;;;;1.30;1.10;;;22.70;18.90;;;;;;5023781;28;20228;-88
2022/07/11 11:38:58;;;;;;;0.80;0.80;;;22.70;20.30;;;;;;5024105;28;20222;-87
2022/07/11 11:41:26;;;;;;;3.90;1.00;;;22.30;20.00;;;;;;5026190;28;20197;-86
2022/07/11 11:43:58;;;;;;;1.05;0.70;;;22.00;20.00;;;;;;5020445;28;20207;-85
2022/07/11 11:46:29;;;;;;;0.77;0.70;;;21.80;21.90;;;;;;5028725;28;20218;-89
2022/07/11 11:48:57;;;;;;;3.67;1.67;;;21.80;22.20;;;;;;5026991;28;20277;-87
2022/07/11 11:51:29;;;;;;;6.63;1.50;;;21.70;22.10;;;;;;5021786;28;20199;-86
2022/07/11 11:54:04;;;;;;;1.65;1.00;;;21.60;22.30;;;;;;5021177;28;20195;-86
2022/07/11 11:56:33;;;;;;;0.77;0.70;;;21.60;22.40;;;;;;5025368;28;20257;-86
2022/07/11 11:59:07;;;;;;;6.18;0.98;;;21.40;23.20;;;;;;5026322;28;20223;-85
2022/07/11 12:01:58;;;;;;;4.03;1.20;;;21.30;23.50;;;;;;5025114;28;20198;-85
2022/07/11 12:04:32;;;;;;;3.55;1.00;;;21.20;23.40;;;;;;5032824;28;20681;-85
2022/07/11 12:07:08;;;;;;;2.45;0.90;;;21.20;23.90;;;;;;5030064;28;20184;-85
2022/07/11 12:09:48;;;;;;;2.13;1.20;;;21.30;22.60;;;;;;5027410;28;20261;-85
2022/07/11 12:15:25;;;;;;;1.20;0.95;;;21.90;21.90;;;;;;5025921;28;20206;-87
2022/07/11 12:17:59;;;;;;;1.30;0.95;;;22.20;20.40;;;;;;5027190;28;20213;-86
2022/07/11 12:20:37;;;;;;;0.98;0.80;;;22.30;20.20;;;;;;5028106;28;21680;-88
2022/07/11 12:23:06;;;;;;;1.45;1.13;;;22.60;21.70;;;;;;5023699;28;20274;-88
2022/07/11 12:25:45;;;;;;;2.05;0.88;;;22.80;20.30;;;;;;5021097;28;20269;-88
2022/07/11 12:28:21;;;;;;;1.35;0.95;;;23.10;20.20;;;;;;5020937;28;20199;-88
2022/07/11 12:30:57;;;;;;;1.10;0.93;;;23.40;19.00;;;;;;5029195;28;20233;-86
2022/07/11 12:33:28;;;;;;;1.50;0.95;;;23.60;19.30;;;;;;5024357;28;22220;-86
2022/07/11 12:36:04;;;;;;;1.02;0.85;;;23.80;19.40;;;;;;5029206;28;20232;-86
2022/07/11 12:38:53;;;;;;;1.83;1.25;;;23.80;20.00;;;;;;5022432;28;20286;-85
2022/07/11 12:41:20;;;;;;;0.95;0.95;;;23.70;19.70;;;;;;5022138;28;20643;-85
2022/07/11 12:47:28;;;;;;;4.45;1.23;;;23.40;19.50;;;;;;5027111;28;20210;-85
2022/07/11 12:49:57;;;;;;;1.70;1.05;;;23.50;20.10;;;;;;5041349;28;20201;-87
2022/07/11 12:55:46;;;;;;;2.72;1.10;;;23.90;20.00;;;;;;5049625;28;20202;-85
2022/07/11 12:58:21;;;;;;;0.90;0.90;;;24.20;18.40;;;;;;5037660;28;20221;-87
2022/07/11 13:01:03;;;;;;;2.78;1.00;;;24.20;18.60;;;;;;5024071;28;20317;-87
2022/07/11 13:03:31;;;;;;;1.30;1.10;;;24.10;19.10;;;;;;5031780;28;20213;-88
2022/07/11 13:06:04;;;;;;;2.75;1.30;;;24.20;21.20;;;;;;5033233;28;20221;-86
2022/07/11 13:08:51;;;;;;;1.23;1.00;;;24.20;21.60;;;;;;5028615;28;20245;-86
2022/07/11 13:11:32;;;;;;;1.67;1.00;;;24.30;17.80;;;;;;5028787;28;20278;-87
2022/07/11 13:17:16;;;;;;;1.20;1.10;;;24.00;17.60;;;;;;5027303;28;20673;-86
2022/07/11 13:19:44;;;;;;;1.23;1.13;;;23.60;20.60;;;;;;5032833;28;20201;-87
2022/07/11 13:22:34;;;;;;;1.13;1.00;;;23.10;19.90;;;;;;5023811;28;20205;-86
2022/07/11 13:25:10;;;;;;;2.22;1.30;;;23.30;21.30;;;;;;5032143;28;20187;-87
2022/07/11 13:27:45;;;;;;;0.80;0.80;;;23.40;21.30;;;;;;5031870;28;20234;-86
2022/07/11 13:30:29;;;;;;;2.22;1.20;;;23.80;19.20;;;;;;5030826;28;20198;-86
2022/07/11 13:32:57;;;;;;;1.40;1.10;;;23.70;19.60;;;;;;5035309;28;20283;-86
2022/07/11 13:35:39;;;;;;;1.35;1.20;;;23.40;19.70;;;;;;5035815;28;20209;-85
2022/07/11 13:38:17;;;;;;;3.03;1.23;;;23.60;19.00;;;;;;5033597;28;20219;-86
2022/07/11 13:40:51;;;;;;;1.05;0.95;;;23.50;19.10;;;;;;5035867;28;20194;-86
2022/07/11 13:43:20;;;;;;;1.02;1.02;;;23.20;19.40;;;;;;5031780;28;20253;-87
2022/07/11 13:45:48;;;;;;;0.93;0.90;;;22.90;19.90;;;;;;5030807;28;20195;-87
2022/07/11 13:48:15;;;;;;;1.50;1.33;;;22.90;19.70;;;;;;5029495;28;20203;-87
2022/07/11 13:50:44;;;;;;;2.08;1.10;;;22.60;20.80;;;;;;5038078;28;20202;-87
2022/07/11 13:53:12;;;;;;;1.05;0.95;;;22.40;21.50;;;;;;5033787;28;20199;-86
2022/07/11 13:55:53;;;;;;;1.50;1.02;;;22.40;21.90;;;;;;5034836;28;20202;-86
2022/07/11 13:58:44;;;;;;;2.53;1.27;;;22.50;21.70;;;;;;5036084;28;20222;-88